Peach Orchard, Georgia
Current Conditions -  °F | °C
As of 9:53 AM on Saturday 25 Oct 2014 (Local Time) from KAGS Reporting Station
Clear Clear  
Wind Chill: 57°   Ceiling: Unl
Heat Index: 57°   Visibility: 10mi
Dew Point: 48°   Wind: 3mph
Humidity: 72%   Direction: 360°N
Pressure: 30.06"   Gusts: NA
Location:  33.3495°N, 81.976°W
Report Text: KAGS 251353Z 36003KT 10SM CLR 14/09 A3006 RMK AO2 SLP177 T01390089
Loading
Personal Weather Stations






























Interactive Weather Map
Tropical Storm Tracking
New forecast layout! Learn more

10-Day Weather Forecast

Advertisements
Track Severe Weather on mobile